sensor_id;sensor_type;location;lat;lon;timestamp;P1;durP1;ratioP1;P2;durP2;ratioP2
39082;SDS011;24834;44.444;26.098;2024-03-29T00:05:37;6.67;;;6.67;;
39082;SDS011;24834;44.444;26.098;2024-03-29T00:11:38;9.67;;;8.67;;
39082;SDS011;24834;44.444;26.098;2024-03-29T00:17:41;6.67;;;6.67;;
39082;SDS011;24834;44.444;26.098;2024-03-29T00:23:42;7.00;;;5.00;;
39082;SDS011;24834;44.444;26.098;2024-03-29T00:29:45;9.00;;;7.33;;
39082;SDS011;24834;44.444;26.098;2024-03-29T00:35:51;5.33;;;5.33;;
39082;SDS011;24834;44.444;26.098;2024-03-29T00:41:52;3.00;;;3.00;;
39082;SDS011;24834;44.444;26.098;2024-03-29T00:47:53;10.00;;;7.00;;
39082;SDS011;24834;44.444;26.098;2024-03-29T00:53:56;9.67;;;8.00;;
39082;SDS011;24834;44.444;26.098;2024-03-29T00:59:58;9.33;;;7.00;;
39082;SDS011;24834;44.444;26.098;2024-03-29T01:05:59;7.67;;;7.00;;
39082;SDS011;24834;44.444;26.098;2024-03-29T01:12:00;8.00;;;8.00;;
39082;SDS011;24834;44.444;26.098;2024-03-29T01:18:01;8.67;;;7.67;;
39082;SDS011;24834;44.444;26.098;2024-03-29T01:24:02;9.00;;;8.00;;
39082;SDS011;24834;44.444;26.098;2024-03-29T01:30:05;9.00;;;8.67;;
39082;SDS011;24834;44.444;26.098;2024-03-29T01:36:08;9.67;;;8.00;;
39082;SDS011;24834;44.444;26.098;2024-03-29T01:42:09;8.67;;;8.33;;
39082;SDS011;24834;44.444;26.098;2024-03-29T01:48:10;8.33;;;6.00;;
39082;SDS011;24834;44.444;26.098;2024-03-29T01:54:12;4.33;;;4.33;;
39082;SDS011;24834;44.444;26.098;2024-03-29T02:00:13;8.33;;;8.33;;
39082;SDS011;24834;44.444;26.098;2024-03-29T02:06:15;7.00;;;5.33;;
39082;SDS011;24834;44.444;26.098;2024-03-29T02:12:17;5.00;;;4.67;;
39082;SDS011;24834;44.444;26.098;2024-03-29T02:18:18;6.00;;;4.33;;
39082;SDS011;24834;44.444;26.098;2024-03-29T02:24:19;6.00;;;4.00;;
39082;SDS011;24834;44.444;26.098;2024-03-29T02:30:22;4.00;;;4.00;;
39082;SDS011;24834;44.444;26.098;2024-03-29T02:36:23;7.33;;;4.67;;
39082;SDS011;24834;44.444;26.098;2024-03-29T02:42:25;3.33;;;2.00;;
39082;SDS011;24834;44.444;26.098;2024-03-29T02:48:26;4.00;;;4.00;;
39082;SDS011;24834;44.444;26.098;2024-03-29T02:54:29;7.00;;;3.00;;
39082;SDS011;24834;44.444;26.098;2024-03-29T03:00:30;4.00;;;3.00;;
39082;SDS011;24834;44.444;26.098;2024-03-29T03:06:31;6.00;;;4.00;;
39082;SDS011;24834;44.444;26.098;2024-03-29T03:12:32;6.33;;;4.67;;
39082;SDS011;24834;44.444;26.098;2024-03-29T03:18:35;3.67;;;3.33;;
39082;SDS011;24834;44.444;26.098;2024-03-29T03:24:36;4.00;;;4.00;;
39082;SDS011;24834;44.444;26.098;2024-03-29T03:30:40;6.00;;;4.00;;
39082;SDS011;24834;44.444;26.098;2024-03-29T03:36:42;7.00;;;5.00;;
39082;SDS011;24834;44.444;26.098;2024-03-29T03:42:43;4.00;;;4.00;;
39082;SDS011;24834;44.444;26.098;2024-03-29T03:48:44;2.00;;;2.00;;
39082;SDS011;24834;44.444;26.098;2024-03-29T03:54:45;5.67;;;3.67;;
39082;SDS011;24834;44.444;26.098;2024-03-29T04:07:31;3.33;;;3.33;;
39082;SDS011;24834;44.444;26.098;2024-03-29T04:13:38;4.00;;;4.00;;
39082;SDS011;24834;44.444;26.098;2024-03-29T04:19:40;4.33;;;3.67;;
39082;SDS011;24834;44.444;26.098;2024-03-29T04:25:50;4.00;;;3.33;;
39082;SDS011;24834;44.444;26.098;2024-03-29T04:31:55;5.33;;;5.33;;
39082;SDS011;24834;44.444;26.098;2024-03-29T04:37:55;4.33;;;4.33;;
39082;SDS011;24834;44.444;26.098;2024-03-29T04:43:56;7.00;;;7.00;;
39082;SDS011;24834;44.444;26.098;2024-03-29T04:49:58;3.67;;;3.33;;
39082;SDS011;24834;44.444;26.098;2024-03-29T04:55:59;4.00;;;4.00;;
39082;SDS011;24834;44.444;26.098;2024-03-29T05:02:00;6.00;;;5.33;;
39082;SDS011;24834;44.444;26.098;2024-03-29T05:08:02;5.33;;;5.33;;
39082;SDS011;24834;44.444;26.098;2024-03-29T05:14:03;5.00;;;4.00;;
39082;SDS011;24834;44.444;26.098;2024-03-29T05:20:04;6.00;;;6.00;;
39082;SDS011;24834;44.444;26.098;2024-03-29T05:26:06;8.00;;;5.67;;
39082;SDS011;24834;44.444;26.098;2024-03-29T05:32:07;6.00;;;4.00;;
39082;SDS011;24834;44.444;26.098;2024-03-29T05:38:09;7.00;;;4.00;;
39082;SDS011;24834;44.444;26.098;2024-03-29T05:44:10;6.67;;;4.00;;
39082;SDS011;24834;44.444;26.098;2024-03-29T05:50:11;0.33;;;0.00;;
39082;SDS011;24834;44.444;26.098;2024-03-29T05:56:12;3.67;;;3.67;;
39082;SDS011;24834;44.444;26.098;2024-03-29T06:02:13;4.33;;;3.00;;
39082;SDS011;24834;44.444;26.098;2024-03-29T06:08:14;3.33;;;3.33;;
39082;SDS011;24834;44.444;26.098;2024-03-29T06:14:15;4.00;;;4.00;;
39082;SDS011;24834;44.444;26.098;2024-03-29T06:20:35;4.00;;;2.00;;
39082;SDS011;24834;44.444;26.098;2024-03-29T06:26:36;4.00;;;4.00;;
39082;SDS011;24834;44.444;26.098;2024-03-29T06:32:37;6.33;;;5.67;;
39082;SDS011;24834;44.444;26.098;2024-03-29T06:38:38;3.67;;;3.67;;
39082;SDS011;24834;44.444;26.098;2024-03-29T06:44:39;3.67;;;3.33;;
39082;SDS011;24834;44.444;26.098;2024-03-29T06:50:41;9.00;;;3.00;;
39082;SDS011;24834;44.444;26.098;2024-03-29T06:56:42;6.00;;;5.00;;
39082;SDS011;24834;44.444;26.098;2024-03-29T07:02:43;19.67;;;19.67;;
39082;SDS011;24834;44.444;26.098;2024-03-29T07:08:45;3.00;;;3.00;;
39082;SDS011;24834;44.444;26.098;2024-03-29T07:14:47;3.00;;;3.00;;
39082;SDS011;24834;44.444;26.098;2024-03-29T07:20:49;10.33;;;4.67;;
39082;SDS011;24834;44.444;26.098;2024-03-29T07:26:51;3.67;;;3.67;;
39082;SDS011;24834;44.444;26.098;2024-03-29T07:32:53;4.67;;;1.00;;
39082;SDS011;24834;44.444;26.098;2024-03-29T07:38:59;2.33;;;2.33;;
39082;SDS011;24834;44.444;26.098;2024-03-29T07:45:00;3.33;;;3.33;;
39082;SDS011;24834;44.444;26.098;2024-03-29T07:51:01;5.33;;;4.33;;
39082;SDS011;24834;44.444;26.098;2024-03-29T07:57:02;5.00;;;4.00;;
39082;SDS011;24834;44.444;26.098;2024-03-29T08:03:04;3.00;;;3.00;;
39082;SDS011;24834;44.444;26.098;2024-03-29T08:09:05;5.00;;;5.00;;
39082;SDS011;24834;44.444;26.098;2024-03-29T08:15:07;8.67;;;6.67;;
39082;SDS011;24834;44.444;26.098;2024-03-29T08:21:10;5.00;;;5.00;;
39082;SDS011;24834;44.444;26.098;2024-03-29T08:27:12;8.33;;;8.33;;
39082;SDS011;24834;44.444;26.098;2024-03-29T08:33:13;4.75;;;4.25;;
39082;SDS011;24834;44.444;26.098;2024-03-29T08:39:14;4.00;;;4.00;;
39082;SDS011;24834;44.444;26.098;2024-03-29T08:45:17;4.75;;;4.50;;
39082;SDS011;24834;44.444;26.098;2024-03-29T08:51:18;9.67;;;8.00;;
39082;SDS011;24834;44.444;26.098;2024-03-29T08:57:19;5.00;;;3.00;;
39082;SDS011;24834;44.444;26.098;2024-03-29T09:03:20;5.00;;;4.00;;
39082;SDS011;24834;44.444;26.098;2024-03-29T09:09:22;5.75;;;3.25;;
39082;SDS011;24834;44.444;26.098;2024-03-29T09:15:23;6.75;;;4.00;;
39082;SDS011;24834;44.444;26.098;2024-03-29T09:21:24;3.00;;;3.00;;
39082;SDS011;24834;44.444;26.098;2024-03-29T09:27:26;4.50;;;3.00;;
39082;SDS011;24834;44.444;26.098;2024-03-29T09:33:28;3.00;;;3.00;;
39082;SDS011;24834;44.444;26.098;2024-03-29T09:39:29;3.75;;;2.75;;
39082;SDS011;24834;44.444;26.098;2024-03-29T09:45:33;3.75;;;1.75;;
39082;SDS011;24834;44.444;26.098;2024-03-29T09:51:39;8.00;;;5.25;;
39082;SDS011;24834;44.444;26.098;2024-03-29T09:57:40;12.75;;;10.50;;
39082;SDS011;24834;44.444;26.098;2024-03-29T10:03:42;8.50;;;6.00;;
39082;SDS011;24834;44.444;26.098;2024-03-29T10:09:53;6.50;;;6.25;;
39082;SDS011;24834;44.444;26.098;2024-03-29T10:15:56;3.00;;;2.00;;
39082;SDS011;24834;44.444;26.098;2024-03-29T10:22:05;4.50;;;3.00;;
39082;SDS011;24834;44.444;26.098;2024-03-29T10:28:09;4.00;;;4.00;;
39082;SDS011;24834;44.444;26.098;2024-03-29T10:34:11;4.75;;;2.75;;
39082;SDS011;24834;44.444;26.098;2024-03-29T10:40:12;2.00;;;2.00;;
39082;SDS011;24834;44.444;26.098;2024-03-29T10:46:16;12.25;;;11.25;;
39082;SDS011;24834;44.444;26.098;2024-03-29T10:52:18;2.50;;;2.50;;
39082;SDS011;24834;44.444;26.098;2024-03-29T10:58:21;6.00;;;5.00;;
39082;SDS011;24834;44.444;26.098;2024-03-29T11:04:33;2.75;;;2.75;;
39082;SDS011;24834;44.444;26.098;2024-03-29T11:10:40;3.50;;;3.00;;
39082;SDS011;24834;44.444;26.098;2024-03-29T11:16:48;4.00;;;4.00;;
39082;SDS011;24834;44.444;26.098;2024-03-29T11:22:51;5.00;;;3.00;;
39082;SDS011;24834;44.444;26.098;2024-03-29T11:28:53;4.75;;;1.75;;
39082;SDS011;24834;44.444;26.098;2024-03-29T11:34:54;5.00;;;3.50;;
39082;SDS011;24834;44.444;26.098;2024-03-29T11:41:15;2.00;;;2.00;;
39082;SDS011;24834;44.444;26.098;2024-03-29T11:47:17;3.00;;;3.00;;
39082;SDS011;24834;44.444;26.098;2024-03-29T11:53:20;6.00;;;3.00;;
39082;SDS011;24834;44.444;26.098;2024-03-29T11:59:21;6.25;;;2.25;;
39082;SDS011;24834;44.444;26.098;2024-03-29T12:05:22;1.25;;;1.25;;
39082;SDS011;24834;44.444;26.098;2024-03-29T12:11:24;3.00;;;1.25;;
39082;SDS011;24834;44.444;26.098;2024-03-29T12:17:28;4.00;;;2.75;;
39082;SDS011;24834;44.444;26.098;2024-03-29T12:23:29;3.50;;;2.00;;
39082;SDS011;24834;44.444;26.098;2024-03-29T12:29:31;1.50;;;1.50;;
39082;SDS011;24834;44.444;26.098;2024-03-29T12:35:34;4.00;;;2.25;;
39082;SDS011;24834;44.444;26.098;2024-03-29T12:41:35;0.75;;;0.75;;
39082;SDS011;24834;44.444;26.098;2024-03-29T12:47:36;4.00;;;3.50;;
39082;SDS011;24834;44.444;26.098;2024-03-29T12:53:38;4.50;;;4.50;;
39082;SDS011;24834;44.444;26.098;2024-03-29T12:59:39;2.75;;;2.75;;
39082;SDS011;24834;44.444;26.098;2024-03-29T13:05:41;2.25;;;2.25;;
39082;SDS011;24834;44.444;26.098;2024-03-29T13:11:42;8.00;;;5.75;;
39082;SDS011;24834;44.444;26.098;2024-03-29T13:17:45;4.25;;;4.00;;
39082;SDS011;24834;44.444;26.098;2024-03-29T13:23:47;3.75;;;3.75;;
39082;SDS011;24834;44.444;26.098;2024-03-29T13:29:48;4.75;;;2.75;;
39082;SDS011;24834;44.444;26.098;2024-03-29T13:35:52;7.00;;;4.00;;
39082;SDS011;24834;44.444;26.098;2024-03-29T13:41:53;3.75;;;3.00;;
39082;SDS011;24834;44.444;26.098;2024-03-29T13:47:54;4.00;;;4.00;;
39082;SDS011;24834;44.444;26.098;2024-03-29T13:53:56;3.50;;;3.25;;
39082;SDS011;24834;44.444;26.098;2024-03-29T13:59:57;4.00;;;4.00;;
39082;SDS011;24834;44.444;26.098;2024-03-29T14:05:59;2.75;;;2.75;;
39082;SDS011;24834;44.444;26.098;2024-03-29T14:12:00;3.00;;;3.00;;
39082;SDS011;24834;44.444;26.098;2024-03-29T14:18:02;4.25;;;3.75;;
39082;SDS011;24834;44.444;26.098;2024-03-29T14:24:06;4.00;;;3.00;;
39082;SDS011;24834;44.444;26.098;2024-03-29T14:30:07;3.75;;;3.75;;
39082;SDS011;24834;44.444;26.098;2024-03-29T14:36:10;4.00;;;4.00;;
39082;SDS011;24834;44.444;26.098;2024-03-29T14:42:11;4.00;;;2.50;;
39082;SDS011;24834;44.444;26.098;2024-03-29T14:48:15;4.75;;;3.25;;
39082;SDS011;24834;44.444;26.098;2024-03-29T14:54:17;6.00;;;5.00;;
39082;SDS011;24834;44.444;26.098;2024-03-29T15:00:18;4.00;;;4.00;;
39082;SDS011;24834;44.444;26.098;2024-03-29T15:06:20;5.00;;;4.00;;
39082;SDS011;24834;44.444;26.098;2024-03-29T15:12:23;5.50;;;3.50;;
39082;SDS011;24834;44.444;26.098;2024-03-29T15:18:25;6.00;;;3.00;;
39082;SDS011;24834;44.444;26.098;2024-03-29T15:24:26;3.25;;;3.25;;
39082;SDS011;24834;44.444;26.098;2024-03-29T15:30:27;4.00;;;4.00;;
39082;SDS011;24834;44.444;26.098;2024-03-29T15:36:29;3.00;;;2.75;;
39082;SDS011;24834;44.444;26.098;2024-03-29T15:42:30;5.00;;;5.00;;
39082;SDS011;24834;44.444;26.098;2024-03-29T15:48:31;2.00;;;2.00;;
39082;SDS011;24834;44.444;26.098;2024-03-29T15:54:32;4.50;;;4.50;;
39082;SDS011;24834;44.444;26.098;2024-03-29T16:00:34;3.00;;;3.00;;
39082;SDS011;24834;44.444;26.098;2024-03-29T16:06:38;4.50;;;4.50;;
39082;SDS011;24834;44.444;26.098;2024-03-29T16:12:39;2.25;;;1.00;;
39082;SDS011;24834;44.444;26.098;2024-03-29T16:18:40;4.75;;;4.25;;
39082;SDS011;24834;44.444;26.098;2024-03-29T16:24:41;8.00;;;8.00;;
39082;SDS011;24834;44.444;26.098;2024-03-29T16:30:43;8.25;;;7.00;;
39082;SDS011;24834;44.444;26.098;2024-03-29T16:36:45;11.50;;;9.75;;
39082;SDS011;24834;44.444;26.098;2024-03-29T16:42:47;5.25;;;5.25;;
39082;SDS011;24834;44.444;26.098;2024-03-29T16:48:48;5.25;;;5.00;;
39082;SDS011;24834;44.444;26.098;2024-03-29T16:54:48;8.50;;;7.50;;
39082;SDS011;24834;44.444;26.098;2024-03-29T17:00:49;5.25;;;5.00;;
39082;SDS011;24834;44.444;26.098;2024-03-29T17:06:50;9.25;;;7.25;;
39082;SDS011;24834;44.444;26.098;2024-03-29T17:12:52;9.00;;;8.00;;
39082;SDS011;24834;44.444;26.098;2024-03-29T17:18:53;11.25;;;9.00;;
39082;SDS011;24834;44.444;26.098;2024-03-29T17:24:55;8.00;;;7.67;;
39082;SDS011;24834;44.444;26.098;2024-03-29T17:30:57;8.25;;;6.25;;
39082;SDS011;24834;44.444;26.098;2024-03-29T17:36:58;6.00;;;6.00;;
39082;SDS011;24834;44.444;26.098;2024-03-29T17:43:00;11.00;;;11.00;;
39082;SDS011;24834;44.444;26.098;2024-03-29T17:49:02;11.33;;;9.67;;
39082;SDS011;24834;44.444;26.098;2024-03-29T17:55:03;8.00;;;8.00;;
39082;SDS011;24834;44.444;26.098;2024-03-29T18:01:05;16.00;;;12.00;;
39082;SDS011;24834;44.444;26.098;2024-03-29T18:07:05;24.67;;;23.00;;
39082;SDS011;24834;44.444;26.098;2024-03-29T18:13:06;18.00;;;15.00;;
39082;SDS011;24834;44.444;26.098;2024-03-29T18:19:09;15.33;;;12.00;;
39082;SDS011;24834;44.444;26.098;2024-03-29T18:25:09;16.00;;;14.00;;
39082;SDS011;24834;44.444;26.098;2024-03-29T18:31:10;15.00;;;11.67;;
39082;SDS011;24834;44.444;26.098;2024-03-29T18:37:14;11.33;;;11.33;;
39082;SDS011;24834;44.444;26.098;2024-03-29T18:43:15;14.00;;;13.00;;
39082;SDS011;24834;44.444;26.098;2024-03-29T18:49:17;10.33;;;6.67;;
39082;SDS011;24834;44.444;26.098;2024-03-29T18:55:20;11.67;;;11.33;;
39082;SDS011;24834;44.444;26.098;2024-03-29T19:01:21;14.33;;;12.67;;
39082;SDS011;24834;44.444;26.098;2024-03-29T19:07:22;24.00;;;22.67;;
39082;SDS011;24834;44.444;26.098;2024-03-29T19:13:23;17.33;;;14.00;;
39082;SDS011;24834;44.444;26.098;2024-03-29T19:19:24;14.33;;;13.33;;
39082;SDS011;24834;44.444;26.098;2024-03-29T19:25:27;13.33;;;13.33;;
39082;SDS011;24834;44.444;26.098;2024-03-29T19:31:30;24.00;;;22.67;;
39082;SDS011;24834;44.444;26.098;2024-03-29T19:37:47;30.00;;;26.00;;
39082;SDS011;24834;44.444;26.098;2024-03-29T19:44:06;35.33;;;31.33;;
39082;SDS011;24834;44.444;26.098;2024-03-29T19:50:08;35.33;;;31.00;;
39082;SDS011;24834;44.444;26.098;2024-03-29T19:56:10;31.67;;;30.67;;
39082;SDS011;24834;44.444;26.098;2024-03-29T20:02:12;35.67;;;31.33;;
39082;SDS011;24834;44.444;26.098;2024-03-29T20:08:15;28.00;;;23.33;;
39082;SDS011;24834;44.444;26.098;2024-03-29T20:14:16;42.67;;;36.00;;
39082;SDS011;24834;44.444;26.098;2024-03-29T20:20:17;33.00;;;27.67;;
39082;SDS011;24834;44.444;26.098;2024-03-29T20:26:19;19.67;;;18.00;;
39082;SDS011;24834;44.444;26.098;2024-03-29T20:32:20;14.67;;;14.67;;
39082;SDS011;24834;44.444;26.098;2024-03-29T20:38:21;13.33;;;13.33;;
39082;SDS011;24834;44.444;26.098;2024-03-29T20:44:22;17.33;;;15.00;;
39082;SDS011;24834;44.444;26.098;2024-03-29T20:50:24;17.00;;;17.00;;
39082;SDS011;24834;44.444;26.098;2024-03-29T20:56:24;18.00;;;16.00;;
39082;SDS011;24834;44.444;26.098;2024-03-29T21:02:26;16.33;;;16.00;;
39082;SDS011;24834;44.444;26.098;2024-03-29T21:08:47;14.00;;;13.00;;
39082;SDS011;24834;44.444;26.098;2024-03-29T21:14:49;15.67;;;15.67;;
39082;SDS011;24834;44.444;26.098;2024-03-29T21:20:50;16.33;;;14.33;;
39082;SDS011;24834;44.444;26.098;2024-03-29T21:26:51;13.00;;;12.67;;
39082;SDS011;24834;44.444;26.098;2024-03-29T21:32:53;18.00;;;13.33;;
39082;SDS011;24834;44.444;26.098;2024-03-29T21:38:54;19.67;;;18.00;;
39082;SDS011;24834;44.444;26.098;2024-03-29T21:44:55;16.33;;;14.33;;
39082;SDS011;24834;44.444;26.098;2024-03-29T21:50:56;17.00;;;17.00;;
39082;SDS011;24834;44.444;26.098;2024-03-29T21:56:57;16.00;;;14.67;;
39082;SDS011;24834;44.444;26.098;2024-03-29T22:02:58;16.00;;;14.33;;
39082;SDS011;24834;44.444;26.098;2024-03-29T22:08:59;16.00;;;14.67;;
39082;SDS011;24834;44.444;26.098;2024-03-29T22:15:00;13.67;;;13.33;;
39082;SDS011;24834;44.444;26.098;2024-03-29T22:21:02;16.67;;;15.00;;
39082;SDS011;24834;44.444;26.098;2024-03-29T22:27:03;11.00;;;9.67;;
39082;SDS011;24834;44.444;26.098;2024-03-29T22:33:04;17.00;;;16.00;;
39082;SDS011;24834;44.444;26.098;2024-03-29T22:39:05;13.67;;;12.00;;
39082;SDS011;24834;44.444;26.098;2024-03-29T22:45:06;17.00;;;13.33;;
39082;SDS011;24834;44.444;26.098;2024-03-29T22:51:07;11.00;;;11.00;;
39082;SDS011;24834;44.444;26.098;2024-03-29T22:57:08;10.67;;;10.00;;
39082;SDS011;24834;44.444;26.098;2024-03-29T23:03:09;14.67;;;12.00;;
39082;SDS011;24834;44.444;26.098;2024-03-29T23:09:09;10.33;;;10.33;;
39082;SDS011;24834;44.444;26.098;2024-03-29T23:15:14;9.67;;;9.67;;
39082;SDS011;24834;44.444;26.098;2024-03-29T23:21:16;12.33;;;11.00;;
39082;SDS011;24834;44.444;26.098;2024-03-29T23:27:19;10.67;;;9.67;;
39082;SDS011;24834;44.444;26.098;2024-03-29T23:33:20;10.00;;;9.00;;
39082;SDS011;24834;44.444;26.098;2024-03-29T23:39:22;11.00;;;10.00;;
39082;SDS011;24834;44.444;26.098;2024-03-29T23:45:23;10.67;;;9.33;;
39082;SDS011;24834;44.444;26.098;2024-03-29T23:51:24;11.00;;;9.67;;
39082;SDS011;24834;44.444;26.098;2024-03-29T23:57:26;11.67;;;11.67;;
